createdAt,value
2023-11-03T00:06:55.045Z,57.95
2023-11-03T00:17:00.265Z,58.14
2023-11-03T00:27:05.446Z,57.89
2023-11-03T00:37:10.854Z,58.25
2023-11-03T00:47:16.092Z,57.79
2023-11-03T00:57:21.090Z,57.35
2023-11-03T01:07:26.641Z,58.18
2023-11-03T01:17:32.149Z,58.59
2023-11-03T01:27:37.793Z,58.74
2023-11-03T01:37:42.961Z,58.84
2023-11-03T01:47:48.089Z,58.90
2023-11-03T01:57:53.574Z,58.95
2023-11-03T02:07:59.108Z,59.00
2023-11-03T02:18:04.286Z,59.10
2023-11-03T02:28:09.926Z,59.12
2023-11-03T02:38:15.290Z,59.18
2023-11-03T02:48:20.600Z,59.23
2023-11-03T02:58:26.200Z,59.28
2023-11-03T03:08:31.492Z,59.32
2023-11-03T03:18:36.774Z,59.35
2023-11-03T03:28:42.158Z,59.44
2023-11-03T03:38:47.208Z,59.50
2023-11-03T03:48:52.536Z,59.56
2023-11-03T03:58:57.724Z,59.59
2023-11-03T04:09:03.104Z,59.66
2023-11-03T04:19:09.655Z,59.70
2023-11-03T04:29:14.973Z,59.79
2023-11-03T04:39:20.099Z,59.81
2023-11-03T04:49:25.327Z,59.89
2023-11-03T04:59:30.585Z,59.93
2023-11-03T05:09:35.404Z,59.95
2023-11-03T05:19:40.831Z,59.98
2023-11-03T05:29:46.301Z,60.00
2023-11-03T05:39:51.791Z,60.03
2023-11-03T05:49:57.454Z,60.04
2023-11-03T06:00:03.093Z,60.07
2023-11-03T06:10:08.394Z,60.11
2023-11-03T06:20:13.573Z,60.13
2023-11-03T06:30:18.693Z,60.12
2023-11-03T06:40:24.232Z,60.13
2023-11-03T06:50:29.417Z,60.17
2023-11-03T07:00:35.312Z,60.20
2023-11-03T07:10:41.368Z,60.21
2023-11-03T07:20:46.278Z,60.26
2023-11-03T07:30:51.484Z,60.30
2023-11-03T07:40:56.685Z,60.31
2023-11-03T07:51:02.073Z,60.33
2023-11-03T08:01:07.751Z,60.35
2023-11-03T08:11:13.190Z,60.35
2023-11-03T08:21:18.671Z,60.39
2023-11-03T08:31:24.035Z,60.43
2023-11-03T08:41:29.356Z,60.43
2023-11-03T08:51:34.726Z,60.44
2023-11-03T09:01:40.463Z,60.55
2023-11-03T09:11:45.736Z,59.89
2023-11-03T09:21:50.862Z,58.09
2023-11-03T09:31:56.367Z,56.46
2023-11-03T09:42:01.574Z,55.26
2023-11-03T09:52:06.725Z,53.73
2023-11-03T10:02:12.087Z,52.86
2023-11-03T10:12:17.313Z,52.16
2023-11-03T10:22:22.526Z,50.81
2023-11-03T10:32:27.710Z,50.69
2023-11-03T10:42:33.107Z,50.64
2023-11-03T10:52:38.695Z,50.98
2023-11-03T11:02:44.047Z,51.63
2023-11-03T11:12:49.405Z,50.64
2023-11-03T11:22:54.904Z,50.27
2023-11-03T11:32:59.961Z,50.37
2023-11-03T11:43:14.384Z,50.58
2023-11-03T11:53:15.954Z,50.62
2023-11-03T12:03:21.050Z,49.56
2023-11-03T12:14:45.648Z,49.36
2023-11-03T12:24:50.632Z,49.07
2023-11-03T12:34:55.960Z,49.18
2023-11-03T12:45:01.345Z,49.77
2023-11-03T12:55:06.727Z,50.27
2023-11-03T13:05:12.101Z,50.50
2023-11-03T13:15:17.212Z,50.90
2023-11-03T13:25:22.431Z,50.96
2023-11-03T13:35:27.815Z,50.78
2023-11-03T13:45:32.904Z,51.46
2023-11-03T13:55:38.552Z,51.68
2023-11-03T14:05:43.737Z,52.24
2023-11-03T14:15:48.769Z,52.06
2023-11-03T14:25:54.216Z,52.25
2023-11-03T14:35:59.665Z,52.50
2023-11-03T14:46:04.928Z,51.82
2023-11-03T14:56:10.227Z,52.15
2023-11-03T15:06:15.504Z,52.73
2023-11-03T15:16:20.990Z,52.13
2023-11-03T15:26:26.399Z,52.27
2023-11-03T15:36:31.598Z,51.83
2023-11-03T15:46:37.307Z,51.82
2023-11-03T15:56:42.761Z,51.62
2023-11-03T16:06:48.088Z,51.59
2023-11-03T16:16:54.330Z,51.44
2023-11-03T16:26:59.742Z,51.41
2023-11-03T16:37:04.785Z,51.38
2023-11-03T16:47:10.172Z,51.55
2023-11-03T16:57:15.623Z,51.79
2023-11-03T17:07:20.784Z,51.89
2023-11-03T17:17:26.533Z,51.68
2023-11-03T17:27:31.903Z,51.43
2023-11-03T17:37:37.372Z,51.75
2023-11-03T17:47:42.980Z,51.77
2023-11-03T17:57:48.600Z,51.54
2023-11-03T18:07:53.924Z,51.22
2023-11-03T18:17:59.348Z,51.22
2023-11-03T18:28:04.677Z,51.05
2023-11-03T18:38:09.977Z,51.37
2023-11-03T18:48:14.957Z,51.56
2023-11-03T18:59:22.861Z,51.72
2023-11-03T19:08:30.891Z,51.65
2023-11-03T19:18:36.597Z,51.24
2023-11-03T19:28:42.114Z,50.67
2023-11-03T19:38:47.316Z,50.48
2023-11-03T19:48:52.565Z,50.60
2023-11-03T19:58:58.065Z,50.30
2023-11-03T20:09:03.344Z,50.21
2023-11-03T20:19:08.803Z,49.85
2023-11-03T20:29:14.036Z,49.58
2023-11-03T20:39:19.429Z,49.67
2023-11-03T20:49:24.821Z,49.67
2023-11-03T20:59:30.043Z,49.72
2023-11-03T21:09:35.148Z,49.72
2023-11-03T21:19:40.118Z,49.82
2023-11-03T21:29:45.108Z,49.85
2023-11-03T21:39:51.695Z,49.82
2023-11-03T21:49:57.082Z,49.62
2023-11-03T22:00:02.352Z,49.58
2023-11-03T22:10:07.740Z,50.09
2023-11-03T22:20:13.001Z,50.43
2023-11-03T22:30:18.594Z,50.20
2023-11-03T22:40:24.341Z,51.26
2023-11-03T22:50:30.601Z,51.61
2023-11-03T23:00:35.949Z,51.65
2023-11-03T23:10:41.572Z,51.82
2023-11-03T23:20:46.914Z,51.93
2023-11-03T23:30:52.286Z,52.03
2023-11-03T23:40:57.589Z,52.22
2023-11-03T23:51:03.094Z,52.22
